Terminal Aerodrome Forecast
Issued by NWS Binghamton, NY

Home | Current Version | Previous Version | Text Only | Print | Product List | Glossary On
Versions: 1 2 3 4 5 6 7 8 9 10 11 12 13 14 15 16 17 18 19
000
FTUS41 KBGM 220800 AAA
TAFSYR
TAF AMD
KSYR 220831Z 2209/2306 VRB03KT P6SM BKN100
     FM221400 26006KT P6SM BKN050
     FM230000 20006KT P6SM SCT250=

USA.gov is the U.S. government's official web portal to all federal, state and local government web resources and services.